Station: Cape Jaffa

  Atmospheric Gas Attenuation - ITU Rec 676-11   --------------- db/100km ---------------
Date Time Temp RH % AH g/m3 Dew Point Wind Direction Speed kph Gust kph Barometer mB Rainfall Since 9am 24GHz 47GHz 76GHz 122GHz 134GHz 241GHz
25 00:30 11.8 91 9.58 10.4 6 6 1013.4 0 21.8 28.1 44.9 118.2 114.5 394.7
25 00:20 11.7 90 9.41 10.1 6 6 1013.1 0 21.4 27.9 44.3 116.3 112.3 386.8
25 00:10 11.7 90 9.41 10.1 6 6 1013.1 0 21.4 27.9 44.3 116.3 112.3 386.8
25 00:00 11.9 90 9.53 10.3 0 0 1013.7 0 21.7 28.0 44.7 117.5 113.7 391.8
24 23:50 11.7 90 9.41 10.1 0 0 1013.1 0 21.4 27.9 44.3 116.3 112.3 386.8
24 23:40 12 89 9.49 10.2 0 0 1013.1 0 21.6 27.9 44.4 116.8 113.0 389.2
24 23:30 12.4 89 9.73 10.6 0 0 1014 0 22.1 28.2 45.3 119.0 115.8 399.2
24 23:20 12.1 87 9.33 10.1 0 0 1013.1 0 21.2 27.6 43.7 114.8 110.6 380.9
24 23:10 12.7 88 9.8 10.7 0 0 1013.1 0 22.2 28.2 45.4 119.3 116.2 400.8
24 23:00 12.6 87 9.63 10.5 0 2 1014.3 0 21.9 28.0 44.7 117.6 114.1 393.3
24 22:50 12.9 86 9.69 10.6 0 0 1013.1 0 22.0 28.0 44.8 117.7 114.4 394.4
24 22:40 13.3 86 9.94 11.1 0 0 1013.1 0 22.5 28.3 45.6 119.9 117.3 404.5
24 22:30 13.2 86 9.88 10.9 2 2 1014.6 0 22.4 28.3 45.5 119.6 116.7 402.6
24 22:20 13.5 86 10.06 11.2 2 2 1013.1 0 22.7 28.4 46.0 121.0 118.7 409.3
24 22:10 13.6 86 10.12 11.3 2 2 1013.1 0 22.9 28.5 46.2 121.5 119.3 411.7
24 22:00 13.8 86 10.25 11.5 4 4 1014.7 0 23.1 28.7 46.7 122.8 121.0 417.5
24 21:50 13.4 85 9.88 10.9 4 4 1013.1 0 22.4 28.1 45.3 119.1 116.3 401.0
24 21:40 13.6 85 10 11.1 6 6 1013.1 0 22.6 28.3 45.7 120.1 117.7 405.8
24 21:30 13.6 85 10 11.1 6 7 1014.9 0 22.6 28.3 45.8 120.3 117.8 406.4
24 21:20 13.6 84 9.89 10.9 7 7 1013.1 0 22.4 28.1 45.2 118.9 116.1 400.5
24 21:10 13.8 84 10.01 11.1 6 7 1013.1 0 22.6 28.2 45.6 119.9 117.5 405.3
24 21:00 13.7 84 9.95 11 6 9 1014.9 0 22.5 28.2 45.5 119.6 117.0 403.5
24 20:50 13.8 83 9.89 10.9 7 7 1013.1 0 22.4 28.0 45.1 118.6 115.8 399.5
24 20:40 14 81 9.77 10.9 9 9 1013.1 0 22.1 27.8 44.5 116.9 113.9 392.7
24 20:30 14.2 81 9.89 11 7 9 1014.9 0 22.3 28.0 45.0 118.2 115.4 398.0
24 20:20 14.6 80 10.01 11.2 7 7 1013.1 0 22.6 28.0 45.1 118.7 116.3 401.1
24 20:10 14.9 79 10.07 11.3 7 11 1013.1 0 22.7 28.0 45.2 118.9 116.6 402.5
24 20:00 15.3 77 10.06 11.3 9 11 1014.8 0 22.6 27.9 45.0 118.4 116.1 400.5
24 19:50 15.7 75 10.03 11.4 9 9 1013.1 0 22.5 27.7 44.6 117.3 114.9 396.4
24 19:40 16.1 74 10.14 11.6 9 11 1013.1 0 22.8 27.7 44.8 117.9 115.8 399.6
24 19:30 16.1 75 10.28 11.7 13 17 1014.8 0 23.1 28.0 45.5 119.6 117.8 406.8
24 19:20 16.5 74 10.39 11.8 11 13 1013.1 0 23.3 28.0 45.6 120.0 118.6 409.4
24 19:10 16.5 73 10.25 11.6 11 13 1013.1 0 23.0 27.8 45.0 118.5 116.7 402.7
24 19:00 16.8 73 10.44 11.9 17 20 1014.7 0 23.4 28.1 45.7 120.3 118.9 410.7
24 18:50 17.1 72 10.48 12 19 20 1013.1 0 23.4 28.0 45.6 120.1 118.9 410.5
24 18:40 16.8 73 10.44 11.9 19 20 1013.1 0 23.4 28.0 45.7 120.1 118.8 410.2
24 18:30 17 72 10.42 11.9 17 22 1014.6 0 23.3 28.0 45.5 119.8 118.3 408.6
24 18:20 17.5 70 10.44 12.1 20 22 1013.1 0 23.3 27.8 45.2 119.0 117.7 406.5
24 18:10 17.5 72 10.73 12.4 15 20 1013.1 0 23.9 28.2 46.4 122.2 121.6 420.1
24 18:00 17.5 71 10.58 12.2 19 22 1014.6 0 23.6 28.1 45.9 120.7 119.7 413.5
24 17:50 17.9 68 10.38 11.9 19 20 1013.1 0 23.2 27.5 44.8 117.8 116.3 401.6
24 17:40 17.5 69 10.29 11.9 17 19 1013.1 0 23.0 27.5 44.6 117.4 115.7 399.5
24 17:30 17.8 68 10.32 11.8 19 24 1014.7 0 23.0 27.5 44.7 117.5 115.8 399.9
24 17:20 18.2 69 10.72 12.4 17 19 1013.1 0 23.9 28.0 46.0 121.0 120.4 415.9
24 17:10 18.2 68 10.57 12.2 19 24 1013.1 0 23.6 27.8 45.4 119.4 118.4 408.9
24 17:00 18 69 10.6 12.2 20 26 1014.7 0 23.6 27.9 45.7 120.2 119.2 411.9
24 16:50 18 68 10.44 12 19 24 1013.1 0 23.3 27.6 45.0 118.3 116.9 403.9
24 16:40 18 66 10.14 11.7 17 20 1013.1 0 22.7 27.1 43.8 115.1 113.0 390.0
24 16:30 18 67 10.29 11.8 20 28 1014.9 0 23.0 27.4 44.4 116.9 115.1 397.5
24 16:20 18.3 66 10.32 12 19 22 1013.1 0 23.0 27.3 44.3 116.5 114.9 396.8
24 16:10 18.4 66 10.38 12.1 20 24 1013.1 0 23.1 27.4 44.5 117.0 115.5 399.1
24 16:00 18.7 66 10.57 12.2 20 28 1015 0 23.5 27.7 45.2 118.8 117.8 406.9
24 15:50 18.8 66 10.63 12.3 24 30 1013.1 0 23.7 27.7 45.3 119.1 118.2 408.6
24 15:40 18.3 66 10.32 11.8 19 22 1013.1 0 23.0 27.3 44.3 116.5 114.9 396.8
24 15:30 18.6 67 10.66 12.4 22 32 1015.2 0 23.7 27.9 45.6 120.0 119.2 411.7
24 15:20 18.6 66 10.5 12.1 17 20 1013.1 0 23.4 27.5 44.9 118.0 116.8 403.6
24 15:10 19.8 62 10.59 12.5 19 20 1013.1 0 23.5 27.3 44.5 117.2 116.2 401.6
24 15:00 18.2 65 10.1 11.5 20 30 1015.5 0 22.6 27.1 43.6 114.6 112.4 387.9
24 14:50 18.9 64 10.37 11.9 20 26 1013.1 0 23.1 27.2 44.2 116.2 114.7 396.1
24 14:40 19 63 10.27 11.8 19 24 1013.1 0 22.9 27.0 43.7 115.0 113.2 391.0
24 14:30 18.5 64 10.13 11.6 22 32 1015.7 0 22.6 27.1 43.6 114.5 112.4 387.9
24 14:20 18.1 63 9.73 11.1 22 28 1013.1 0 21.8 26.4 42.1 110.6 107.5 370.8
24 14:10 18.6 63 10.03 11.4 24 30 1013.1 0 22.4 26.8 43.0 113.0 110.7 382.1
24 14:00 18.7 64 10.25 11.8 20 30 1015.9 0 22.8 27.2 43.9 115.5 113.7 392.5
24 13:50 18.6 63 10.03 11.6 22 30 1013.1 0 22.4 26.8 43.0 113.0 110.7 382.1
24 13:40 18.5 63 9.97 11.5 22 24 1013.1 0 22.3 26.7 42.8 112.5 110.0 379.8
24 13:30 18.7 64 10.25 11.8 20 28 1016.1 0 22.8 27.2 43.9 115.5 113.7 392.5
24 13:20 18.8 63 10.15 11.6 15 22 1013.1 0 22.6 26.9 43.4 114.0 111.9 386.5
24 13:10 19 61 9.94 11.5 20 26 1013.1 0 22.2 26.5 42.4 111.5 108.9 376.1
24 13:00 18.5 61 9.65 10.8 17 28 1016.3 0 21.6 26.3 41.7 109.5 106.2 366.3
24 12:50 18.4 63 9.91 11.4 22 28 1013.1 0 22.1 26.6 42.6 112.0 109.4 377.6
24 12:40 18 64 9.83 11.1 20 22 1013.1 0 22.0 26.6 42.5 111.8 108.9 375.8
24 12:30 17.8 64 9.71 10.9 19 30 1016.2 0 21.7 26.6 42.3 111.1 107.9 372.2
24 12:20 18.5 63 9.97 11.5 19 20 1013.1 0 22.3 26.7 42.8 112.5 110.0 379.8
24 12:10 17.6 65 9.75 11.1 19 26 1013.1 0 21.8 26.6 42.4 111.5 108.4 374.1
24 12:00 18.3 64 10.01 11.4 17 24 1016.6 0 22.4 27.0 43.2 113.6 111.2 383.7
24 11:50 18.4 65 10.22 11.7 19 20 1013.1 0 22.8 27.1 43.9 115.3 113.4 391.7
24 11:40 18.3 63 9.85 11.1 20 22 1013.1 0 22.0 26.6 42.4 111.6 108.8 375.3
24 11:30 17.2 66 9.66 10.8 15 24 1017.1 0 21.7 26.7 42.5 111.5 108.2 373.1
24 11:20 17.4 64 9.48 10.5 20 22 1013.1 0 21.3 26.2 41.5 108.9 105.2 362.7
24 11:10 17.4 65 9.63 10.7 19 22 1013.1 0 21.6 26.5 42.0 110.5 107.1 369.6
24 11:00 17 64 9.26 10.1 17 24 1017.5 0 20.8 26.2 41.0 107.6 103.2 355.8
24 10:50 17.4 65 9.63 10.7 20 22 1013.1 0 21.6 26.5 42.0 110.5 107.1 369.6
24 10:40 17.2 64 9.37 10.5 15 20 1013.1 0 21.1 26.1 41.1 108.0 104.0 358.7
24 10:30 17.4 65 9.63 10.8 15 22 1017.4 0 21.6 26.6 42.2 111.0 107.5 370.8
24 10:20 16.9 67 9.64 10.7 15 19 1013.1 0 21.7 26.7 42.4 111.3 108.0 372.4
24 10:10 16.8 64 9.15 10.1 17 20 1013.1 0 20.6 25.9 40.5 106.3 101.7 350.5
24 10:00 17 66 9.55 10.6 17 24 1017.5 0 21.4 26.6 42.1 110.7 107.0 369.1
24 09:50 16.7 67 9.52 10.7 17 22 1013.1 0 21.4 26.5 42.0 110.3 106.7 367.8
24 09:40 16.3 67 9.29 10.3 11 15 1013.1 0 20.9 26.3 41.3 108.4 104.2 359.1
24 09:30 16.3 69 9.57 10.6 15 20 1017.3 0 21.5 26.9 42.6 111.9 108.2 373.2
24 09:20 16.2 69 9.51 10.5 15 19 1013.1 0 21.4 26.7 42.2 110.9 107.2 369.7
24 09:10 16.4 69 9.63 10.7 17 20 1013.1 0 21.7 26.8 42.6 111.9 108.5 374.3
24 09:00 16.4 69 9.63 10.7 15 20 1017.3 0 21.6 26.9 42.8 112.4 108.9 375.5
24 08:50 16 68 9.26 10.1 15 19 1013.1 0 20.9 26.3 41.3 108.5 104.2 359.1
24 08:40 15.6 69 9.18 9.9 6 7 1013.1 0 20.7 26.3 41.2 108.2 103.7 357.2
24 08:30 15.9 70 9.48 10.4 11 15 1016.9 0 21.4 26.8 42.4 111.4 107.6 370.8
24 08:20 15.8 71 9.56 10.5 11 13 1013.1 0 21.5 26.9 42.6 112.0 108.4 373.9
24 08:10 15.4 71 9.33 10.3 11 11 1013.1 0 21.1 26.6 41.9 110.1 105.9 365.1
24 08:00 14.7 74 9.32 10.1 11 15 1016.7 0 21.1 26.9 42.4 111.4 107.1 369.0

Last Refresh: 25-Nov-2020 00:40:42

Most of the information presented on this site is sourced from the Bureau of Meteorology.  Copyright in all material sourced from the Bureau of Meteorology resides with the Commonwealth of Australia.